sensor_id;sensor_type;location;lat;lon;timestamp;P1;durP1;ratioP1;P2;durP2;ratioP2
52798;SDS011;38667;42.872;74.622;2023-08-24T00:02:06;10.75;;;3.53;;
52798;SDS011;38667;42.872;74.622;2023-08-24T00:04:32;12.82;;;3.97;;
52798;SDS011;38667;42.872;74.622;2023-08-24T00:06:59;10.95;;;3.63;;
52798;SDS011;38667;42.872;74.622;2023-08-24T00:09:27;9.73;;;3.30;;
52798;SDS011;38667;42.872;74.622;2023-08-24T00:11:53;13.52;;;4.10;;
52798;SDS011;38667;42.872;74.622;2023-08-24T00:14:19;17.48;;;5.43;;
52798;SDS011;38667;42.872;74.622;2023-08-24T00:16:46;18.42;;;7.28;;
52798;SDS011;38667;42.872;74.622;2023-08-24T00:19:12;25.02;;;7.57;;
52798;SDS011;38667;42.872;74.622;2023-08-24T00:21:38;30.75;;;9.65;;
52798;SDS011;38667;42.872;74.622;2023-08-24T00:24:05;30.77;;;10.10;;
52798;SDS011;38667;42.872;74.622;2023-08-24T00:26:33;24.17;;;8.57;;
52798;SDS011;38667;42.872;74.622;2023-08-24T00:28:59;24.42;;;9.23;;
52798;SDS011;38667;42.872;74.622;2023-08-24T00:31:25;19.75;;;7.85;;
52798;SDS011;38667;42.872;74.622;2023-08-24T00:33:52;20.88;;;6.95;;
52798;SDS011;38667;42.872;74.622;2023-08-24T00:36:18;15.82;;;5.55;;
52798;SDS011;38667;42.872;74.622;2023-08-24T00:38:44;12.93;;;4.85;;
52798;SDS011;38667;42.872;74.622;2023-08-24T00:41:12;17.10;;;5.38;;
52798;SDS011;38667;42.872;74.622;2023-08-24T00:43:40;26.80;;;5.45;;
52798;SDS011;38667;42.872;74.622;2023-08-24T00:46:06;9.82;;;3.38;;
52798;SDS011;38667;42.872;74.622;2023-08-24T00:48:33;20.35;;;5.80;;
52798;SDS011;38667;42.872;74.622;2023-08-24T00:50:59;19.10;;;6.18;;
52798;SDS011;38667;42.872;74.622;2023-08-24T00:53:26;13.77;;;5.68;;
52798;SDS011;38667;42.872;74.622;2023-08-24T00:55:53;16.55;;;6.22;;
52798;SDS011;38667;42.872;74.622;2023-08-24T00:58:20;27.33;;;6.70;;
52798;SDS011;38667;42.872;74.622;2023-08-24T01:00:48;25.67;;;6.65;;
52798;SDS011;38667;42.872;74.622;2023-08-24T01:03:16;18.90;;;6.22;;
52798;SDS011;38667;42.872;74.622;2023-08-24T01:05:42;24.55;;;6.32;;
52798;SDS011;38667;42.872;74.622;2023-08-24T01:08:09;15.48;;;5.50;;
52798;SDS011;38667;42.872;74.622;2023-08-24T01:10:38;16.85;;;6.00;;
52798;SDS011;38667;42.872;74.622;2023-08-24T01:13:24;19.20;;;5.45;;
52798;SDS011;38667;42.872;74.622;2023-08-24T01:15:58;16.13;;;5.60;;
52798;SDS011;38667;42.872;74.622;2023-08-24T01:18:29;13.10;;;5.38;;
52798;SDS011;38667;42.872;74.622;2023-08-24T01:20:56;20.55;;;5.63;;
52798;SDS011;38667;42.872;74.622;2023-08-24T01:23:27;13.55;;;5.28;;
52798;SDS011;38667;42.872;74.622;2023-08-24T01:26:11;20.15;;;6.55;;
52798;SDS011;38667;42.872;74.622;2023-08-24T01:28:38;25.05;;;8.18;;
52798;SDS011;38667;42.872;74.622;2023-08-24T01:31:05;20.27;;;7.32;;
52798;SDS011;38667;42.872;74.622;2023-08-24T01:33:31;23.38;;;7.78;;
52798;SDS011;38667;42.872;74.622;2023-08-24T01:35:58;21.08;;;7.18;;
52798;SDS011;38667;42.872;74.622;2023-08-24T01:38:24;15.63;;;7.05;;
52798;SDS011;38667;42.872;74.622;2023-08-24T01:40:53;20.02;;;6.20;;
52798;SDS011;38667;42.872;74.622;2023-08-24T01:43:29;20.17;;;6.20;;
52798;SDS011;38667;42.872;74.622;2023-08-24T01:45:56;19.88;;;6.10;;
52798;SDS011;38667;42.872;74.622;2023-08-24T01:48:24;26.33;;;6.03;;
52798;SDS011;38667;42.872;74.622;2023-08-24T01:50:51;15.27;;;6.90;;
52798;SDS011;38667;42.872;74.622;2023-08-24T01:53:18;8.48;;;5.03;;
52798;SDS011;38667;42.872;74.622;2023-08-24T01:55:45;22.67;;;9.07;;
52798;SDS011;38667;42.872;74.622;2023-08-24T01:58:11;26.00;;;11.25;;
52798;SDS011;38667;42.872;74.622;2023-08-24T02:00:39;27.48;;;10.93;;
52798;SDS011;38667;42.872;74.622;2023-08-24T02:03:05;20.55;;;10.50;;
52798;SDS011;38667;42.872;74.622;2023-08-24T02:05:32;24.60;;;9.77;;
52798;SDS011;38667;42.872;74.622;2023-08-24T02:07:58;25.42;;;8.95;;
52798;SDS011;38667;42.872;74.622;2023-08-24T02:10:24;14.73;;;8.13;;
52798;SDS011;38667;42.872;74.622;2023-08-24T02:12:51;22.05;;;9.20;;
52798;SDS011;38667;42.872;74.622;2023-08-24T02:15:17;29.58;;;9.95;;
52798;SDS011;38667;42.872;74.622;2023-08-24T02:17:45;24.65;;;8.75;;
52798;SDS011;38667;42.872;74.622;2023-08-24T02:20:11;18.40;;;8.18;;
52798;SDS011;38667;42.872;74.622;2023-08-24T02:22:38;19.15;;;7.10;;
52798;SDS011;38667;42.872;74.622;2023-08-24T02:25:05;21.67;;;7.57;;
52798;SDS011;38667;42.872;74.622;2023-08-24T02:27:31;21.08;;;7.28;;
52798;SDS011;38667;42.872;74.622;2023-08-24T02:29:58;23.20;;;7.25;;
52798;SDS011;38667;42.872;74.622;2023-08-24T02:32:24;19.88;;;6.70;;
52798;SDS011;38667;42.872;74.622;2023-08-24T02:34:52;17.75;;;6.10;;
52798;SDS011;38667;42.872;74.622;2023-08-24T02:37:18;21.27;;;6.72;;
52798;SDS011;38667;42.872;74.622;2023-08-24T02:39:45;20.92;;;6.65;;
52798;SDS011;38667;42.872;74.622;2023-08-24T02:42:11;23.27;;;7.38;;
52798;SDS011;38667;42.872;74.622;2023-08-24T02:44:37;24.35;;;8.90;;
52798;SDS011;38667;42.872;74.622;2023-08-24T02:47:04;25.50;;;10.25;;
52798;SDS011;38667;42.872;74.622;2023-08-24T02:49:30;21.50;;;10.80;;
52798;SDS011;38667;42.872;74.622;2023-08-24T02:51:58;24.60;;;9.85;;
52798;SDS011;38667;42.872;74.622;2023-08-24T02:54:24;28.30;;;9.75;;
52798;SDS011;38667;42.872;74.622;2023-08-24T02:56:51;18.60;;;9.10;;
52798;SDS011;38667;42.872;74.622;2023-08-24T02:59:18;20.17;;;7.70;;
52798;SDS011;38667;42.872;74.622;2023-08-24T03:01:45;23.23;;;6.72;;
52798;SDS011;38667;42.872;74.622;2023-08-24T03:04:11;19.30;;;6.10;;
52798;SDS011;38667;42.872;74.622;2023-08-24T03:06:37;21.45;;;5.63;;
52798;SDS011;38667;42.872;74.622;2023-08-24T03:09:05;10.68;;;3.63;;
52798;SDS011;38667;42.872;74.622;2023-08-24T03:11:31;7.68;;;2.67;;
52798;SDS011;38667;42.872;74.622;2023-08-24T03:13:58;4.05;;;1.88;;
52798;SDS011;38667;42.872;74.622;2023-08-24T03:16:24;7.15;;;2.25;;
52798;SDS011;38667;42.872;74.622;2023-08-24T03:18:51;7.25;;;1.90;;
52798;SDS011;38667;42.872;74.622;2023-08-24T03:21:17;6.80;;;2.50;;
52798;SDS011;38667;42.872;74.622;2023-08-24T03:23:43;6.30;;;2.67;;
52798;SDS011;38667;42.872;74.622;2023-08-24T03:26:11;10.52;;;3.28;;
52798;SDS011;38667;42.872;74.622;2023-08-24T03:28:37;5.78;;;3.33;;
52798;SDS011;38667;42.872;74.622;2023-08-24T03:31:06;3.92;;;2.33;;
52798;SDS011;38667;42.872;74.622;2023-08-24T03:33:32;19.17;;;5.20;;
52798;SDS011;38667;42.872;74.622;2023-08-24T03:35:58;20.15;;;8.07;;
52798;SDS011;38667;42.872;74.622;2023-08-24T03:38:24;25.48;;;9.27;;
52798;SDS011;38667;42.872;74.622;2023-08-24T03:40:51;18.52;;;8.77;;
52798;SDS011;38667;42.872;74.622;2023-08-24T03:43:19;18.23;;;7.85;;
52798;SDS011;38667;42.872;74.622;2023-08-24T03:45:45;15.48;;;7.03;;
52798;SDS011;38667;42.872;74.622;2023-08-24T03:48:11;16.20;;;6.88;;
52798;SDS011;38667;42.872;74.622;2023-08-24T03:50:37;15.25;;;5.13;;
52798;SDS011;38667;42.872;74.622;2023-08-24T03:53:04;8.80;;;3.65;;
52798;SDS011;38667;42.872;74.622;2023-08-24T03:55:31;11.13;;;4.15;;
52798;SDS011;38667;42.872;74.622;2023-08-24T03:57:57;12.30;;;4.03;;
52798;SDS011;38667;42.872;74.622;2023-08-24T04:00:25;10.77;;;3.63;;
52798;SDS011;38667;42.872;74.622;2023-08-24T04:02:51;15.43;;;4.22;;
52798;SDS011;38667;42.872;74.622;2023-08-24T04:05:18;12.27;;;4.32;;
52798;SDS011;38667;42.872;74.622;2023-08-24T04:07:44;12.88;;;4.00;;
52798;SDS011;38667;42.872;74.622;2023-08-24T04:10:11;13.40;;;4.50;;
52798;SDS011;38667;42.872;74.622;2023-08-24T04:12:37;11.23;;;4.00;;
52798;SDS011;38667;42.872;74.622;2023-08-24T04:15:04;8.82;;;3.67;;
52798;SDS011;38667;42.872;74.622;2023-08-24T04:17:32;10.68;;;4.50;;
52798;SDS011;38667;42.872;74.622;2023-08-24T04:19:58;17.33;;;6.10;;
52798;SDS011;38667;42.872;74.622;2023-08-24T04:22:25;12.35;;;6.60;;
52798;SDS011;38667;42.872;74.622;2023-08-24T04:24:51;25.52;;;7.72;;
52798;SDS011;38667;42.872;74.622;2023-08-24T04:27:17;14.93;;;6.75;;
52798;SDS011;38667;42.872;74.622;2023-08-24T04:29:44;14.98;;;6.20;;
52798;SDS011;38667;42.872;74.622;2023-08-24T04:32:10;20.23;;;8.02;;
52798;SDS011;38667;42.872;74.622;2023-08-24T04:34:38;22.23;;;8.63;;
52798;SDS011;38667;42.872;74.622;2023-08-24T04:37:05;24.98;;;9.48;;
52798;SDS011;38667;42.872;74.622;2023-08-24T04:39:31;24.55;;;9.25;;
52798;SDS011;38667;42.872;74.622;2023-08-24T04:41:58;23.95;;;9.10;;
52798;SDS011;38667;42.872;74.622;2023-08-24T04:44:24;20.33;;;8.18;;
52798;SDS011;38667;42.872;74.622;2023-08-24T04:46:50;18.75;;;7.45;;
52798;SDS011;38667;42.872;74.622;2023-08-24T04:49:17;15.52;;;6.38;;
52798;SDS011;38667;42.872;74.622;2023-08-24T04:51:44;16.15;;;6.32;;
52798;SDS011;38667;42.872;74.622;2023-08-24T04:54:11;15.93;;;5.20;;
52798;SDS011;38667;42.872;74.622;2023-08-24T04:56:37;17.98;;;5.30;;
52798;SDS011;38667;42.872;74.622;2023-08-24T04:59:03;15.25;;;5.00;;
52798;SDS011;38667;42.872;74.622;2023-08-24T05:01:30;7.10;;;4.65;;
52798;SDS011;38667;42.872;74.622;2023-08-24T05:03:56;12.85;;;4.68;;
52798;SDS011;38667;42.872;74.622;2023-08-24T05:06:23;8.23;;;4.25;;
52798;SDS011;38667;42.872;74.622;2023-08-24T05:08:51;11.52;;;4.28;;
52798;SDS011;38667;42.872;74.622;2023-08-24T05:11:17;11.75;;;4.22;;
52798;SDS011;38667;42.872;74.622;2023-08-24T05:13:44;6.35;;;3.50;;
52798;SDS011;38667;42.872;74.622;2023-08-24T05:16:11;12.25;;;4.53;;
52798;SDS011;38667;42.872;74.622;2023-08-24T05:18:38;7.82;;;4.07;;
52798;SDS011;38667;42.872;74.622;2023-08-24T05:21:05;6.22;;;3.70;;
52798;SDS011;38667;42.872;74.622;2023-08-24T05:23:31;13.48;;;4.53;;
52798;SDS011;38667;42.872;74.622;2023-08-24T05:26:00;6.95;;;3.42;;
52798;SDS011;38667;42.872;74.622;2023-08-24T05:28:27;9.90;;;3.85;;
52798;SDS011;38667;42.872;74.622;2023-08-24T05:30:55;12.38;;;4.55;;
52798;SDS011;38667;42.872;74.622;2023-08-24T05:33:22;8.63;;;3.60;;
52798;SDS011;38667;42.872;74.622;2023-08-24T05:35:49;6.43;;;3.42;;
52798;SDS011;38667;42.872;74.622;2023-08-24T05:38:16;6.57;;;3.03;;
52798;SDS011;38667;42.872;74.622;2023-08-24T05:40:43;6.68;;;3.85;;
52798;SDS011;38667;42.872;74.622;2023-08-24T05:43:13;7.90;;;3.33;;
52798;SDS011;38667;42.872;74.622;2023-08-24T05:45:45;6.88;;;2.92;;
52798;SDS011;38667;42.872;74.622;2023-08-24T05:48:12;11.90;;;3.92;;
52798;SDS011;38667;42.872;74.622;2023-08-24T05:50:42;9.65;;;3.47;;
52798;SDS011;38667;42.872;74.622;2023-08-24T05:53:08;11.45;;;4.00;;
52798;SDS011;38667;42.872;74.622;2023-08-24T05:55:35;10.30;;;3.75;;
52798;SDS011;38667;42.872;74.622;2023-08-24T05:58:01;9.30;;;3.20;;
52798;SDS011;38667;42.872;74.622;2023-08-24T06:00:29;8.25;;;2.92;;
52798;SDS011;38667;42.872;74.622;2023-08-24T06:02:56;8.88;;;3.42;;
52798;SDS011;38667;42.872;74.622;2023-08-24T06:05:22;9.38;;;4.53;;
52798;SDS011;38667;42.872;74.622;2023-08-24T06:07:48;14.73;;;6.25;;
52798;SDS011;38667;42.872;74.622;2023-08-24T06:10:15;13.05;;;5.45;;
52798;SDS011;38667;42.872;74.622;2023-08-24T06:12:41;9.30;;;3.58;;
52798;SDS011;38667;42.872;74.622;2023-08-24T06:15:08;8.55;;;3.38;;
52798;SDS011;38667;42.872;74.622;2023-08-24T06:17:36;6.70;;;3.65;;
52798;SDS011;38667;42.872;74.622;2023-08-24T06:20:02;8.70;;;3.90;;
52798;SDS011;38667;42.872;74.622;2023-08-24T06:22:29;10.90;;;4.70;;
52798;SDS011;38667;42.872;74.622;2023-08-24T06:24:55;9.43;;;4.18;;
52798;SDS011;38667;42.872;74.622;2023-08-24T06:27:22;9.02;;;3.80;;
52798;SDS011;38667;42.872;74.622;2023-08-24T06:29:48;11.18;;;3.80;;
52798;SDS011;38667;42.872;74.622;2023-08-24T06:32:14;6.93;;;3.17;;
52798;SDS011;38667;42.872;74.622;2023-08-24T06:34:42;10.60;;;3.72;;
52798;SDS011;38667;42.872;74.622;2023-08-24T06:37:08;10.35;;;3.45;;
52798;SDS011;38667;42.872;74.622;2023-08-24T06:39:35;9.68;;;2.90;;
52798;SDS011;38667;42.872;74.622;2023-08-24T06:42:01;8.55;;;3.58;;
52798;SDS011;38667;42.872;74.622;2023-08-24T06:44:28;6.40;;;3.10;;
52798;SDS011;38667;42.872;74.622;2023-08-24T06:46:54;7.88;;;2.70;;
52798;SDS011;38667;42.872;74.622;2023-08-24T06:49:20;9.38;;;2.80;;
52798;SDS011;38667;42.872;74.622;2023-08-24T06:51:48;6.85;;;3.10;;
52798;SDS011;38667;42.872;74.622;2023-08-24T06:54:14;5.60;;;2.55;;
52798;SDS011;38667;42.872;74.622;2023-08-24T06:56:41;6.78;;;2.60;;
52798;SDS011;38667;42.872;74.622;2023-08-24T06:59:07;10.00;;;2.55;;
52798;SDS011;38667;42.872;74.622;2023-08-24T07:01:33;6.38;;;2.38;;
52798;SDS011;38667;42.872;74.622;2023-08-24T07:04:00;12.80;;;6.13;;
52798;SDS011;38667;42.872;74.622;2023-08-24T07:06:26;11.27;;;6.72;;
52798;SDS011;38667;42.872;74.622;2023-08-24T07:08:54;5.70;;;3.05;;
52798;SDS011;38667;42.872;74.622;2023-08-24T07:11:20;5.72;;;2.22;;
52798;SDS011;38667;42.872;74.622;2023-08-24T07:13:46;8.27;;;2.55;;
52798;SDS011;38667;42.872;74.622;2023-08-24T07:16:13;10.27;;;2.92;;
52798;SDS011;38667;42.872;74.622;2023-08-24T07:18:39;8.68;;;2.53;;
52798;SDS011;38667;42.872;74.622;2023-08-24T07:21:05;5.25;;;2.25;;
52798;SDS011;38667;42.872;74.622;2023-08-24T07:23:31;9.93;;;2.05;;
52798;SDS011;38667;42.872;74.622;2023-08-24T07:25:59;8.05;;;2.50;;
52798;SDS011;38667;42.872;74.622;2023-08-24T07:28:26;8.68;;;4.35;;
52798;SDS011;38667;42.872;74.622;2023-08-24T07:30:52;13.38;;;4.22;;
52798;SDS011;38667;42.872;74.622;2023-08-24T07:33:18;9.25;;;2.72;;
52798;SDS011;38667;42.872;74.622;2023-08-24T07:35:44;7.95;;;3.10;;
52798;SDS011;38667;42.872;74.622;2023-08-24T07:38:11;6.10;;;3.30;;
52798;SDS011;38667;42.872;74.622;2023-08-24T07:40:37;6.97;;;2.30;;
52798;SDS011;38667;42.872;74.622;2023-08-24T07:43:05;7.13;;;2.30;;
52798;SDS011;38667;42.872;74.622;2023-08-24T07:45:31;9.10;;;3.30;;
52798;SDS011;38667;42.872;74.622;2023-08-24T07:47:58;5.70;;;1.83;;
52798;SDS011;38667;42.872;74.622;2023-08-24T07:50:24;6.05;;;1.88;;
52798;SDS011;38667;42.872;74.622;2023-08-24T07:52:50;5.38;;;1.65;;
52798;SDS011;38667;42.872;74.622;2023-08-24T07:55:17;7.15;;;2.20;;
52798;SDS011;38667;42.872;74.622;2023-08-24T07:57:43;4.22;;;1.73;;
52798;SDS011;38667;42.872;74.622;2023-08-24T08:00:11;4.72;;;1.80;;
52798;SDS011;38667;42.872;74.622;2023-08-24T08:02:39;8.63;;;1.63;;
52798;SDS011;38667;42.872;74.622;2023-08-24T08:05:05;8.02;;;1.70;;
52798;SDS011;38667;42.872;74.622;2023-08-24T08:07:32;5.65;;;1.50;;
52798;SDS011;38667;42.872;74.622;2023-08-24T08:09:58;5.35;;;1.85;;
52798;SDS011;38667;42.872;74.622;2023-08-24T08:12:24;7.82;;;1.77;;
52798;SDS011;38667;42.872;74.622;2023-08-24T08:14:51;3.13;;;1.30;;
52798;SDS011;38667;42.872;74.622;2023-08-24T08:17:19;5.53;;;1.50;;
52798;SDS011;38667;42.872;74.622;2023-08-24T08:19:45;9.70;;;1.52;;
52798;SDS011;38667;42.872;74.622;2023-08-24T08:22:12;5.82;;;1.23;;
52798;SDS011;38667;42.872;74.622;2023-08-24T08:24:38;2.58;;;1.35;;
52798;SDS011;38667;42.872;74.622;2023-08-24T08:27:04;4.65;;;1.55;;
52798;SDS011;38667;42.872;74.622;2023-08-24T08:29:31;3.72;;;1.90;;
52798;SDS011;38667;42.872;74.622;2023-08-24T08:31:58;4.45;;;1.92;;
52798;SDS011;38667;42.872;74.622;2023-08-24T08:34:26;6.25;;;1.63;;
52798;SDS011;38667;42.872;74.622;2023-08-24T08:36:52;4.85;;;1.38;;
52798;SDS011;38667;42.872;74.622;2023-08-24T08:39:18;5.10;;;1.52;;
52798;SDS011;38667;42.872;74.622;2023-08-24T08:41:44;7.55;;;1.20;;
52798;SDS011;38667;42.872;74.622;2023-08-24T08:44:12;5.70;;;1.58;;
52798;SDS011;38667;42.872;74.622;2023-08-24T08:46:39;8.75;;;1.45;;
52798;SDS011;38667;42.872;74.622;2023-08-24T08:49:07;4.05;;;1.45;;
52798;SDS011;38667;42.872;74.622;2023-08-24T08:51:35;2.45;;;1.20;;
52798;SDS011;38667;42.872;74.622;2023-08-24T08:54:02;6.10;;;1.38;;
52798;SDS011;38667;42.872;74.622;2023-08-24T08:56:29;11.90;;;1.75;;
52798;SDS011;38667;42.872;74.622;2023-08-24T08:58:55;23.95;;;3.45;;
52798;SDS011;38667;42.872;74.622;2023-08-24T09:01:23;11.48;;;1.95;;
52798;SDS011;38667;42.872;74.622;2023-08-24T09:03:50;9.90;;;1.70;;
52798;SDS011;38667;42.872;74.622;2023-08-24T09:06:17;6.47;;;1.67;;
52798;SDS011;38667;42.872;74.622;2023-08-24T09:08:45;6.18;;;1.35;;
52798;SDS011;38667;42.872;74.622;2023-08-24T09:11:12;11.27;;;1.60;;
52798;SDS011;38667;42.872;74.622;2023-08-24T09:13:39;9.25;;;1.60;;
52798;SDS011;38667;42.872;74.622;2023-08-24T09:16:06;5.22;;;1.70;;
52798;SDS011;38667;42.872;74.622;2023-08-24T09:18:34;8.63;;;1.60;;
52798;SDS011;38667;42.872;74.622;2023-08-24T09:21:06;5.53;;;1.90;;
52798;SDS011;38667;42.872;74.622;2023-08-24T09:23:33;5.60;;;1.75;;
52798;SDS011;38667;42.872;74.622;2023-08-24T09:26:01;6.90;;;1.40;;
52798;SDS011;38667;42.872;74.622;2023-08-24T09:28:28;6.75;;;1.85;;
52798;SDS011;38667;42.872;74.622;2023-08-24T09:30:54;9.48;;;1.67;;
52798;SDS011;38667;42.872;74.622;2023-08-24T09:33:20;9.48;;;1.80;;
52798;SDS011;38667;42.872;74.622;2023-08-24T09:35:50;6.22;;;2.08;;
52798;SDS011;38667;42.872;74.622;2023-08-24T09:38:17;7.13;;;1.73;;
52798;SDS011;38667;42.872;74.622;2023-08-24T09:40:44;10.30;;;2.25;;
52798;SDS011;38667;42.872;74.622;2023-08-24T09:43:13;6.53;;;1.80;;
52798;SDS011;38667;42.872;74.622;2023-08-24T09:45:46;10.77;;;2.28;;
52798;SDS011;38667;42.872;74.622;2023-08-24T09:48:13;5.63;;;1.80;;
52798;SDS011;38667;42.872;74.622;2023-08-24T09:50:40;8.98;;;2.22;;
52798;SDS011;38667;42.872;74.622;2023-08-24T09:53:07;5.88;;;2.17;;
52798;SDS011;38667;42.872;74.622;2023-08-24T09:55:38;7.18;;;2.05;;
52798;SDS011;38667;42.872;74.622;2023-08-24T09:58:06;7.80;;;2.50;;
52798;SDS011;38667;42.872;74.622;2023-08-24T10:00:37;7.18;;;2.40;;
52798;SDS011;38667;42.872;74.622;2023-08-24T10:03:04;4.78;;;1.92;;
52798;SDS011;38667;42.872;74.622;2023-08-24T10:05:31;9.07;;;1.65;;
52798;SDS011;38667;42.872;74.622;2023-08-24T10:08:00;4.43;;;1.70;;
52798;SDS011;38667;42.872;74.622;2023-08-24T10:10:27;8.35;;;2.67;;
52798;SDS011;38667;42.872;74.622;2023-08-24T10:12:57;10.30;;;2.80;;
52798;SDS011;38667;42.872;74.622;2023-08-24T10:15:25;8.60;;;2.10;;
52798;SDS011;38667;42.872;74.622;2023-08-24T10:17:53;6.10;;;2.85;;
52798;SDS011;38667;42.872;74.622;2023-08-24T10:20:21;8.77;;;1.80;;
52798;SDS011;38667;42.872;74.622;2023-08-24T10:22:49;7.03;;;1.83;;
52798;SDS011;38667;42.872;74.622;2023-08-24T10:25:16;8.70;;;2.10;;
52798;SDS011;38667;42.872;74.622;2023-08-24T10:27:43;4.47;;;1.50;;
52798;SDS011;38667;42.872;74.622;2023-08-24T10:30:10;5.53;;;1.63;;
52798;SDS011;38667;42.872;74.622;2023-08-24T10:32:37;5.07;;;1.85;;
52798;SDS011;38667;42.872;74.622;2023-08-24T10:35:07;16.23;;;1.98;;
52798;SDS011;38667;42.872;74.622;2023-08-24T10:37:33;3.30;;;1.83;;
52798;SDS011;38667;42.872;74.622;2023-08-24T10:40:00;4.75;;;1.88;;
52798;SDS011;38667;42.872;74.622;2023-08-24T10:42:26;7.47;;;3.25;;
52798;SDS011;38667;42.872;74.622;2023-08-24T10:44:53;12.02;;;2.60;;
52798;SDS011;38667;42.872;74.622;2023-08-24T10:47:19;8.85;;;2.25;;
52798;SDS011;38667;42.872;74.622;2023-08-24T10:49:57;6.18;;;2.03;;
52798;SDS011;38667;42.872;74.622;2023-08-24T10:52:25;7.32;;;2.78;;
52798;SDS011;38667;42.872;74.622;2023-08-24T10:54:56;4.60;;;1.98;;
52798;SDS011;38667;42.872;74.622;2023-08-24T10:57:22;9.68;;;1.95;;
52798;SDS011;38667;42.872;74.622;2023-08-24T10:59:59;6.90;;;1.90;;
52798;SDS011;38667;42.872;74.622;2023-08-24T11:02:28;7.80;;;2.10;;
52798;SDS011;38667;42.872;74.622;2023-08-24T11:05:03;11.45;;;2.38;;
52798;SDS011;38667;42.872;74.622;2023-08-24T11:07:32;4.05;;;1.90;;
52798;SDS011;38667;42.872;74.622;2023-08-24T11:09:58;5.63;;;2.35;;
52798;SDS011;38667;42.872;74.622;2023-08-24T11:15:36;7.32;;;2.00;;
52798;SDS011;38667;42.872;74.622;2023-08-24T11:21:05;6.47;;;2.22;;
52798;SDS011;38667;42.872;74.622;2023-08-24T11:23:33;7.53;;;2.22;;
52798;SDS011;38667;42.872;74.622;2023-08-24T11:26:00;5.38;;;1.75;;
52798;SDS011;38667;42.872;74.622;2023-08-24T11:28:27;6.47;;;2.28;;
52798;SDS011;38667;42.872;74.622;2023-08-24T11:30:54;5.15;;;2.00;;
52798;SDS011;38667;42.872;74.622;2023-08-24T11:33:27;7.00;;;1.98;;
52798;SDS011;38667;42.872;74.622;2023-08-24T11:35:54;4.53;;;2.03;;
52798;SDS011;38667;42.872;74.622;2023-08-24T11:38:21;5.28;;;1.63;;
52798;SDS011;38667;42.872;74.622;2023-08-24T11:40:49;8.77;;;2.22;;
52798;SDS011;38667;42.872;74.622;2023-08-24T11:43:20;3.42;;;2.25;;
52798;SDS011;38667;42.872;74.622;2023-08-24T11:45:49;8.00;;;2.80;;
52798;SDS011;38667;42.872;74.622;2023-08-24T11:48:15;6.60;;;2.67;;
52798;SDS011;38667;42.872;74.622;2023-08-24T11:50:42;9.68;;;2.60;;
52798;SDS011;38667;42.872;74.622;2023-08-24T11:53:08;6.32;;;2.10;;
52798;SDS011;38667;42.872;74.622;2023-08-24T11:55:39;8.90;;;1.73;;
52798;SDS011;38667;42.872;74.622;2023-08-24T11:58:06;6.53;;;2.63;;
52798;SDS011;38667;42.872;74.622;2023-08-24T12:00:39;7.50;;;2.60;;
52798;SDS011;38667;42.872;74.622;2023-08-24T12:03:06;10.55;;;6.07;;
52798;SDS011;38667;42.872;74.622;2023-08-24T12:05:32;7.93;;;3.38;;
52798;SDS011;38667;42.872;74.622;2023-08-24T12:07:59;11.77;;;3.30;;
52798;SDS011;38667;42.872;74.622;2023-08-24T12:10:25;5.25;;;2.70;;
52798;SDS011;38667;42.872;74.622;2023-08-24T12:13:00;10.88;;;3.50;;
52798;SDS011;38667;42.872;74.622;2023-08-24T12:15:29;8.68;;;3.00;;
52798;SDS011;38667;42.872;74.622;2023-08-24T12:17:55;5.85;;;3.10;;
52798;SDS011;38667;42.872;74.622;2023-08-24T12:20:22;9.75;;;2.78;;
52798;SDS011;38667;42.872;74.622;2023-08-24T12:22:52;6.45;;;2.63;;
52798;SDS011;38667;42.872;74.622;2023-08-24T12:25:21;7.38;;;2.58;;
52798;SDS011;38667;42.872;74.622;2023-08-24T12:27:48;12.27;;;2.50;;
52798;SDS011;38667;42.872;74.622;2023-08-24T12:30:15;12.13;;;2.90;;
52798;SDS011;38667;42.872;74.622;2023-08-24T12:32:44;6.07;;;2.40;;
52798;SDS011;38667;42.872;74.622;2023-08-24T12:35:11;7.43;;;2.55;;
52798;SDS011;38667;42.872;74.622;2023-08-24T12:37:37;7.43;;;2.28;;
52798;SDS011;38667;42.872;74.622;2023-08-24T12:40:04;8.63;;;2.20;;
52798;SDS011;38667;42.872;74.622;2023-08-24T12:42:31;10.05;;;2.60;;
52798;SDS011;38667;42.872;74.622;2023-08-24T12:44:57;11.20;;;2.55;;
52798;SDS011;38667;42.872;74.622;2023-08-24T12:47:24;11.48;;;2.90;;
52798;SDS011;38667;42.872;74.622;2023-08-24T12:49:52;8.90;;;2.65;;
52798;SDS011;38667;42.872;74.622;2023-08-24T12:52:18;7.70;;;2.47;;
52798;SDS011;38667;42.872;74.622;2023-08-24T12:54:44;10.70;;;2.97;;
52798;SDS011;38667;42.872;74.622;2023-08-24T12:57:10;9.95;;;2.60;;
52798;SDS011;38667;42.872;74.622;2023-08-24T12:59:37;5.95;;;2.50;;
52798;SDS011;38667;42.872;74.622;2023-08-24T13:02:03;6.18;;;2.75;;
52798;SDS011;38667;42.872;74.622;2023-08-24T13:04:29;5.20;;;3.03;;
52798;SDS011;38667;42.872;74.622;2023-08-24T13:06:57;9.25;;;2.80;;
52798;SDS011;38667;42.872;74.622;2023-08-24T13:09:24;6.15;;;2.60;;
52798;SDS011;38667;42.872;74.622;2023-08-24T13:11:50;7.72;;;3.00;;
52798;SDS011;38667;42.872;74.622;2023-08-24T13:14:16;11.82;;;3.22;;
52798;SDS011;38667;42.872;74.622;2023-08-24T13:16:43;11.48;;;3.28;;
52798;SDS011;38667;42.872;74.622;2023-08-24T13:19:09;8.05;;;3.03;;
52798;SDS011;38667;42.872;74.622;2023-08-24T13:21:35;10.10;;;2.90;;
52798;SDS011;38667;42.872;74.622;2023-08-24T13:24:03;12.23;;;3.47;;
52798;SDS011;38667;42.872;74.622;2023-08-24T13:26:30;10.05;;;3.70;;
52798;SDS011;38667;42.872;74.622;2023-08-24T13:28:56;9.65;;;3.90;;
52798;SDS011;38667;42.872;74.622;2023-08-24T13:31:22;12.10;;;3.63;;
52798;SDS011;38667;42.872;74.622;2023-08-24T13:33:49;16.30;;;5.03;;
52798;SDS011;38667;42.872;74.622;2023-08-24T13:36:15;9.73;;;4.10;;
52798;SDS011;38667;42.872;74.622;2023-08-24T13:38:43;10.32;;;3.97;;
52798;SDS011;38667;42.872;74.622;2023-08-24T13:41:11;8.85;;;4.30;;
52798;SDS011;38667;42.872;74.622;2023-08-24T13:43:37;12.07;;;4.07;;
52798;SDS011;38667;42.872;74.622;2023-08-24T13:46:03;16.77;;;4.32;;
52798;SDS011;38667;42.872;74.622;2023-08-24T13:48:29;12.18;;;6.32;;
52798;SDS011;38667;42.872;74.622;2023-08-24T13:50:56;13.73;;;6.43;;
52798;SDS011;38667;42.872;74.622;2023-08-24T13:53:22;19.95;;;8.13;;
52798;SDS011;38667;42.872;74.622;2023-08-24T13:55:48;22.08;;;8.75;;
52798;SDS011;38667;42.872;74.622;2023-08-24T13:58:16;22.42;;;8.82;;
52798;SDS011;38667;42.872;74.622;2023-08-24T14:00:42;18.52;;;8.35;;
52798;SDS011;38667;42.872;74.622;2023-08-24T14:03:09;20.15;;;7.50;;
52798;SDS011;38667;42.872;74.622;2023-08-24T14:05:38;24.48;;;9.05;;
52798;SDS011;38667;42.872;74.622;2023-08-24T14:08:04;25.17;;;10.80;;
52798;SDS011;38667;42.872;74.622;2023-08-24T14:10:31;30.52;;;10.57;;
52798;SDS011;38667;42.872;74.622;2023-08-24T14:12:57;26.92;;;9.93;;
52798;SDS011;38667;42.872;74.622;2023-08-24T14:15:25;21.45;;;8.93;;
52798;SDS011;38667;42.872;74.622;2023-08-24T14:17:51;16.27;;;7.53;;
52798;SDS011;38667;42.872;74.622;2023-08-24T14:20:17;30.30;;;7.20;;
52798;SDS011;38667;42.872;74.622;2023-08-24T14:22:44;26.33;;;6.65;;
52798;SDS011;38667;42.872;74.622;2023-08-24T14:25:10;20.95;;;6.82;;
52798;SDS011;38667;42.872;74.622;2023-08-24T14:27:36;19.30;;;6.18;;
52798;SDS011;38667;42.872;74.622;2023-08-24T14:30:03;22.60;;;6.35;;
52798;SDS011;38667;42.872;74.622;2023-08-24T14:32:31;23.35;;;6.82;;
52798;SDS011;38667;42.872;74.622;2023-08-24T14:34:58;26.27;;;7.40;;